sensor_id;sensor_type;location;lat;lon;timestamp;pressure;altitude;pressure_sealevel;temperature;humidity
53699;BME280;68408;53.952;27.612;2023-09-07T00:00:48;1023.5;;;14.3;61.3
53699;BME280;68408;53.952;27.612;2023-09-07T00:05:34;1023.5;;;14.2;61.5
53699;BME280;68408;53.952;27.612;2023-09-07T00:10:52;1023.6;;;14.2;61.8
53699;BME280;68408;53.952;27.612;2023-09-07T00:16:16;1023.6;;;14.1;61.9
53699;BME280;68408;53.952;27.612;2023-09-07T00:20:50;1023.6;;;14.1;61.9
53699;BME280;68408;53.952;27.612;2023-09-07T00:26:00;1023.6;;;14.1;62
53699;BME280;68408;53.952;27.612;2023-09-07T00:31:00;1023.7;;;14;62.1
53699;BME280;68408;53.952;27.612;2023-09-07T00:36:16;1023.7;;;14;62.3
53699;BME280;68408;53.952;27.612;2023-09-07T00:41:06;1023.7;;;13.9;62.4
53699;BME280;68408;53.952;27.612;2023-09-07T00:45:34;1023.7;;;13.9;62.5
53699;BME280;68408;53.952;27.612;2023-09-07T00:50:42;1023.7;;;13.8;62.9
53699;BME280;68408;53.952;27.612;2023-09-07T00:55:44;1023.8;;;13.8;62.9
53699;BME280;68408;53.952;27.612;2023-09-07T01:01:16;1023.9;;;13.8;63.4
53699;BME280;68408;53.952;27.612;2023-09-07T01:05:51;1023.9;;;13.7;63.7
53699;BME280;68408;53.952;27.612;2023-09-07T01:10:42;1023.9;;;13.6;63.9
53699;BME280;68408;53.952;27.612;2023-09-07T01:16:00;1024;;;13.6;64
53699;BME280;68408;53.952;27.612;2023-09-07T01:21:06;1024;;;13.5;64.2
53699;BME280;68408;53.952;27.612;2023-09-07T01:26:16;1024;;;13.5;64.5
53699;BME280;68408;53.952;27.612;2023-09-07T01:31:06;1024;;;13.4;64.9
53699;BME280;68408;53.952;27.612;2023-09-07T01:35:34;1024;;;13.3;65.1
53699;BME280;68408;53.952;27.612;2023-09-07T01:40:48;1024;;;13.3;65.1
53699;BME280;68408;53.952;27.612;2023-09-07T01:46:06;1024;;;13.3;65.1
53699;BME280;68408;53.952;27.612;2023-09-07T01:51:14;1024;;;13.2;65.1
53699;BME280;68408;53.952;27.612;2023-09-07T01:55:53;1024;;;13.2;65
53699;BME280;68408;53.952;27.612;2023-09-07T02:00:48;1024;;;13.1;65.2
53699;BME280;68408;53.952;27.612;2023-09-07T02:06:16;1024;;;13;65.5
53699;BME280;68408;53.952;27.612;2023-09-07T02:10:44;1024.1;;;12.9;65.8
53699;BME280;68408;53.952;27.612;2023-09-07T02:16:16;1024.1;;;12.9;66
53699;BME280;68408;53.952;27.612;2023-09-07T02:21:01;1024.1;;;12.8;66.1
53699;BME280;68408;53.952;27.612;2023-09-07T02:25:48;1024.2;;;12.8;66.2
53699;BME280;68408;53.952;27.612;2023-09-07T02:31:06;1024.2;;;12.8;66.3
53699;BME280;68408;53.952;27.612;2023-09-07T02:35:36;1024.3;;;12.8;66.3
53699;BME280;68408;53.952;27.612;2023-09-07T02:41:16;1024.3;;;12.7;66.2
53699;BME280;68408;53.952;27.612;2023-09-07T02:45:35;1024.4;;;12.7;66.1
53699;BME280;68408;53.952;27.612;2023-09-07T02:51:04;1024.5;;;12.7;66.2
53699;BME280;68408;53.952;27.612;2023-09-07T02:56:16;1024.6;;;12.6;66.1
53699;BME280;68408;53.952;27.612;2023-09-07T03:01:06;1024.7;;;12.6;66.2
53699;BME280;68408;53.952;27.612;2023-09-07T03:06:16;1024.7;;;12.5;66.3
53699;BME280;68408;53.952;27.612;2023-09-07T03:11:07;1024.8;;;12.5;66.3
53699;BME280;68408;53.952;27.612;2023-09-07T03:15:34;1024.8;;;12.4;66.4
53699;BME280;68408;53.952;27.612;2023-09-07T03:20:49;1024.8;;;12.4;66.5
53699;BME280;68408;53.952;27.612;2023-09-07T03:25:40;1024.9;;;12.4;66.8
53699;BME280;68408;53.952;27.612;2023-09-07T03:31:16;1024.9;;;12.3;66.8
53699;BME280;68408;53.952;27.612;2023-09-07T03:35:34;1024.9;;;12.4;66.8
53699;BME280;68408;53.952;27.612;2023-09-07T03:40:42;1024.9;;;12.4;66.7
53699;BME280;68408;53.952;27.612;2023-09-07T03:45:42;1025;;;12.5;66.5
53699;BME280;68408;53.952;27.612;2023-09-07T03:50:56;1025;;;12.5;66.4
53699;BME280;68408;53.952;27.612;2023-09-07T03:56:16;1025;;;12.5;66.3
53699;BME280;68408;53.952;27.612;2023-09-07T04:01:06;1025;;;12.5;66.2
53699;BME280;68408;53.952;27.612;2023-09-07T04:05:49;1025.1;;;12.6;66.2
53699;BME280;68408;53.952;27.612;2023-09-07T04:10:36;1025.2;;;12.6;66
53699;BME280;68408;53.952;27.612;2023-09-07T04:15:50;1025.1;;;12.7;65.9
53699;BME280;68408;53.952;27.612;2023-09-07T04:21:04;1025.1;;;12.8;65.5
53699;BME280;68408;53.952;27.612;2023-09-07T04:25:34;1025.1;;;13;65.2
53699;BME280;68408;53.952;27.612;2023-09-07T04:30:46;1025.2;;;13.1;64.9
53699;BME280;68408;53.952;27.612;2023-09-07T04:36:05;1025.1;;;13.3;64.5
53699;BME280;68408;53.952;27.612;2023-09-07T04:41:05;1025.1;;;13.4;64.1
53699;BME280;68408;53.952;27.612;2023-09-07T04:46:14;1025.2;;;13.6;63.7
53699;BME280;68408;53.952;27.612;2023-09-07T04:51:07;1025.2;;;13.7;63.3
53699;BME280;68408;53.952;27.612;2023-09-07T04:55:40;1025.2;;;13.8;62.9
53699;BME280;68408;53.952;27.612;2023-09-07T05:00:34;1025.2;;;14;62.6
53699;BME280;68408;53.952;27.612;2023-09-07T05:06:14;1025.2;;;14.1;62.1
53699;BME280;68408;53.952;27.612;2023-09-07T05:10:57;1025.3;;;14.3;61.7
53699;BME280;68408;53.952;27.612;2023-09-07T05:16:14;1025.3;;;14.4;61.3
53699;BME280;68408;53.952;27.612;2023-09-07T05:21:15;1025.3;;;14.6;60.9
53699;BME280;68408;53.952;27.612;2023-09-07T05:25:49;1025.3;;;14.8;60.4
53699;BME280;68408;53.952;27.612;2023-09-07T05:30:50;1025.3;;;15;59.7
53699;BME280;68408;53.952;27.612;2023-09-07T05:35:54;1025.2;;;15.3;59.1
53699;BME280;68408;53.952;27.612;2023-09-07T05:40:46;1025.2;;;15.6;58.3
53699;BME280;68408;53.952;27.612;2023-09-07T05:46:14;1025.3;;;15.8;57.6
53699;BME280;68408;53.952;27.612;2023-09-07T05:50:35;1025.3;;;16;56.5
53699;BME280;68408;53.952;27.612;2023-09-07T05:56:14;1025.4;;;16.1;55.5
53699;BME280;68408;53.952;27.612;2023-09-07T06:01:05;1025.4;;;16.2;54.7
53699;BME280;68408;53.952;27.612;2023-09-07T06:06:02;1025.4;;;16.3;54.4
53699;BME280;68408;53.952;27.612;2023-09-07T06:10:34;1025.4;;;16.4;53.8
53699;BME280;68408;53.952;27.612;2023-09-07T06:16:03;1025.4;;;16.5;53.1
53699;BME280;68408;53.952;27.612;2023-09-07T06:21:14;1025.5;;;16.6;52.4
53699;BME280;68408;53.952;27.612;2023-09-07T06:26:06;1025.5;;;16.8;51.7
53699;BME280;68408;53.952;27.612;2023-09-07T06:30:40;1025.5;;;17;51.3
53699;BME280;68408;53.952;27.612;2023-09-07T06:35:52;1025.5;;;17.2;50.4
53699;BME280;68408;53.952;27.612;2023-09-07T06:40:40;1025.5;;;17.3;49.5
53699;BME280;68408;53.952;27.612;2023-09-07T06:46:14;1025.5;;;17.5;49.1
53699;BME280;68408;53.952;27.612;2023-09-07T06:51:06;1025.5;;;17.7;48.7
53699;BME280;68408;53.952;27.612;2023-09-07T06:55:56;1025.5;;;17.9;48.6
53699;BME280;68408;53.952;27.612;2023-09-07T07:00:52;1025.6;;;18.2;47.4
53699;BME280;68408;53.952;27.612;2023-09-07T07:06:00;1025.6;;;18.3;46.4
53699;BME280;68408;53.952;27.612;2023-09-07T07:11:12;1025.7;;;18.4;45.3
53699;BME280;68408;53.952;27.612;2023-09-07T07:15:35;1025.6;;;18.4;44.7
53699;BME280;68408;53.952;27.612;2023-09-07T07:20:41;1025.7;;;18.5;44.5
53699;BME280;68408;53.952;27.612;2023-09-07T07:25:50;1025.7;;;18.6;43.6
53699;BME280;68408;53.952;27.612;2023-09-07T07:31:06;1025.7;;;18.6;42.8
53699;BME280;68408;53.952;27.612;2023-09-07T07:36:14;1025.7;;;18.7;42.9
53699;BME280;68408;53.952;27.612;2023-09-07T07:41:06;1025.7;;;18.8;42.8
53699;BME280;68408;53.952;27.612;2023-09-07T07:46:02;1025.7;;;18.8;42.5
53699;BME280;68408;53.952;27.612;2023-09-07T07:50:36;1025.7;;;18.9;42.3
53699;BME280;68408;53.952;27.612;2023-09-07T07:56:03;1025.7;;;18.9;42.4
53699;BME280;68408;53.952;27.612;2023-09-07T08:01:15;1025.8;;;19;42.1
53699;BME280;68408;53.952;27.612;2023-09-07T08:05:54;1025.8;;;19.1;41.9
53699;BME280;68408;53.952;27.612;2023-09-07T08:10:35;1025.7;;;19.2;41.9
53699;BME280;68408;53.952;27.612;2023-09-07T08:15:34;1025.7;;;19.4;41.6
53699;BME280;68408;53.952;27.612;2023-09-07T08:20:40;1025.7;;;19.4;41.5
53699;BME280;68408;53.952;27.612;2023-09-07T08:26:14;1025.7;;;19.5;41.4
53699;BME280;68408;53.952;27.612;2023-09-07T08:31:06;1025.7;;;19.7;41.1
53699;BME280;68408;53.952;27.612;2023-09-07T08:35:57;1025.8;;;19.8;41.1
53699;BME280;68408;53.952;27.612;2023-09-07T08:40:46;1025.8;;;20;40.8
53699;BME280;68408;53.952;27.612;2023-09-07T08:46:15;1025.8;;;19.9;40
53699;BME280;68408;53.952;27.612;2023-09-07T08:51:15;1025.8;;;19.9;40
53699;BME280;68408;53.952;27.612;2023-09-07T08:55:55;1025.8;;;19.9;40.3
53699;BME280;68408;53.952;27.612;2023-09-07T09:01:03;1025.8;;;20.1;39.7
53699;BME280;68408;53.952;27.612;2023-09-07T09:05:57;1025.8;;;20.1;39.3
53699;BME280;68408;53.952;27.612;2023-09-07T09:11:04;1025.7;;;20.1;39.7
53699;BME280;68408;53.952;27.612;2023-09-07T09:16:13;1025.7;;;20.2;39.4
53699;BME280;68408;53.952;27.612;2023-09-07T09:21:03;1025.7;;;20.2;38.8
53699;BME280;68408;53.952;27.612;2023-09-07T09:26:01;1025.6;;;20.2;37.9
53699;BME280;68408;53.952;27.612;2023-09-07T09:30:45;1025.6;;;20.2;37.2
53699;BME280;68408;53.952;27.612;2023-09-07T09:35:51;1025.6;;;20.3;37.9
53699;BME280;68408;53.952;27.612;2023-09-07T09:41:11;1025.6;;;20.3;36.6
53699;BME280;68408;53.952;27.612;2023-09-07T09:45:49;1025.6;;;20.1;35.8
53699;BME280;68408;53.952;27.612;2023-09-07T09:50:39;1025.5;;;20;36.4
53699;BME280;68408;53.952;27.612;2023-09-07T09:55:47;1025.5;;;20.2;37
53699;BME280;68408;53.952;27.612;2023-09-07T10:00:45;1025.5;;;20.4;36.4
53699;BME280;68408;53.952;27.612;2023-09-07T10:06:11;1025.5;;;20.6;36.5
53699;BME280;68408;53.952;27.612;2023-09-07T10:11:07;1025.4;;;20.6;36.4
53699;BME280;68408;53.952;27.612;2023-09-07T10:16:03;1025.4;;;20.6;36.5
53699;BME280;68408;53.952;27.612;2023-09-07T10:20:51;1025.3;;;20.5;36.7
53699;BME280;68408;53.952;27.612;2023-09-07T10:26:13;1025.3;;;20.6;36.8
53699;BME280;68408;53.952;27.612;2023-09-07T10:30:37;1025.3;;;20.7;36.1
53699;BME280;68408;53.952;27.612;2023-09-07T10:35:53;1025.3;;;20.8;35.4
53699;BME280;68408;53.952;27.612;2023-09-07T10:40:39;1025.3;;;21;35.3
53699;BME280;68408;53.952;27.612;2023-09-07T10:45:51;1025.2;;;21;35.1
53699;BME280;68408;53.952;27.612;2023-09-07T10:50:51;1025.2;;;21.1;34.8
53699;BME280;68408;53.952;27.612;2023-09-07T10:56:13;1025.2;;;21.1;34.7
53699;BME280;68408;53.952;27.612;2023-09-07T11:01:05;1025.2;;;21.1;34.7
53699;BME280;68408;53.952;27.612;2023-09-07T11:06:03;1025.2;;;21.1;34.8
53699;BME280;68408;53.952;27.612;2023-09-07T11:10:47;1025.1;;;21.2;34.8
53699;BME280;68408;53.952;27.612;2023-09-07T11:16:03;1025.1;;;21.3;34.6
53699;BME280;68408;53.952;27.612;2023-09-07T11:21:13;1025.1;;;21.4;34.3
53699;BME280;68408;53.952;27.612;2023-09-07T11:25:55;1025.1;;;21.4;34.2
53699;BME280;68408;53.952;27.612;2023-09-07T11:30:48;1025.1;;;21.5;34.1
53699;BME280;68408;53.952;27.612;2023-09-07T11:35:49;1025;;;21.6;33.8
53699;BME280;68408;53.952;27.612;2023-09-07T11:40:41;1025;;;21.6;33.9
53699;BME280;68408;53.952;27.612;2023-09-07T11:46:13;1025;;;21.8;33.8
53699;BME280;68408;53.952;27.612;2023-09-07T11:51:05;1025;;;21.7;33.4
53699;BME280;68408;53.952;27.612;2023-09-07T11:56:03;1024.9;;;21.6;33.5
53699;BME280;68408;53.952;27.612;2023-09-07T12:00:47;1024.9;;;21.7;33.1
53699;BME280;68408;53.952;27.612;2023-09-07T12:06:13;1024.9;;;21.7;33.1
53699;BME280;68408;53.952;27.612;2023-09-07T12:10:49;1024.9;;;21.7;33.3
53699;BME280;68408;53.952;27.612;2023-09-07T12:16:09;1024.8;;;21.7;33.3
53699;BME280;68408;53.952;27.612;2023-09-07T12:20:35;1024.8;;;21.9;32.9
53699;BME280;68408;53.952;27.612;2023-09-07T12:25:43;1024.8;;;21.9;32.6
53699;BME280;68408;53.952;27.612;2023-09-07T12:30:41;1024.7;;;22;32.6
53699;BME280;68408;53.952;27.612;2023-09-07T12:36:13;1024.6;;;22.1;32.9
53699;BME280;68408;53.952;27.612;2023-09-07T12:41:05;1024.6;;;22.2;32.7
53699;BME280;68408;53.952;27.612;2023-09-07T12:46:01;1024.5;;;22.2;32.7
53699;BME280;68408;53.952;27.612;2023-09-07T12:50:35;1024.5;;;22.1;32.7
53699;BME280;68408;53.952;27.612;2023-09-07T12:56:03;1024.4;;;22.1;32.1
53699;BME280;68408;53.952;27.612;2023-09-07T13:01:13;1024.3;;;22.2;31.7
53699;BME280;68408;53.952;27.612;2023-09-07T13:05:49;1024.4;;;22.2;31.4
53699;BME280;68408;53.952;27.612;2023-09-07T13:10:47;1024.3;;;22.2;31.8
53699;BME280;68408;53.952;27.612;2023-09-07T13:15:35;1024.3;;;22.4;31.6
53699;BME280;68408;53.952;27.612;2023-09-07T13:21:05;1024.3;;;22.3;31.4
53699;BME280;68408;53.952;27.612;2023-09-07T13:26:13;1024.2;;;22.3;31.7
53699;BME280;68408;53.952;27.612;2023-09-07T13:30:59;1024.2;;;22.3;31.9
53699;BME280;68408;53.952;27.612;2023-09-07T13:36:03;1024.2;;;22.4;32.3
53699;BME280;68408;53.952;27.612;2023-09-07T13:40:35;1024.1;;;22.5;32.4
53699;BME280;68408;53.952;27.612;2023-09-07T13:45:55;1024;;;22.5;32.4
53699;BME280;68408;53.952;27.612;2023-09-07T13:51:13;1024;;;22.5;32.6
53699;BME280;68408;53.952;27.612;2023-09-07T13:55:35;1023.9;;;22.6;32.7
53699;BME280;68408;53.952;27.612;2023-09-07T14:00:47;1023.9;;;22.7;32.6
53699;BME280;68408;53.952;27.612;2023-09-07T14:05:49;1023.9;;;22.6;32.6
53699;BME280;68408;53.952;27.612;2023-09-07T14:10:57;1023.9;;;22.5;32.8
53699;BME280;68408;53.952;27.612;2023-09-07T14:16:13;1023.9;;;22.4;33
53699;BME280;68408;53.952;27.612;2023-09-07T14:21:05;1023.9;;;22.3;33.1
53699;BME280;68408;53.952;27.612;2023-09-07T14:26:03;1023.8;;;22.5;33.3
53699;BME280;68408;53.952;27.612;2023-09-07T14:30:35;1023.8;;;22.5;33.1
53699;BME280;68408;53.952;27.612;2023-09-07T14:35:55;1023.8;;;22.5;32.8
53699;BME280;68408;53.952;27.612;2023-09-07T14:41:13;1023.7;;;22.3;32.8
53699;BME280;68408;53.952;27.612;2023-09-07T14:45:59;1023.8;;;22.3;32.8
53699;BME280;68408;53.952;27.612;2023-09-07T14:50:35;1023.8;;;22.2;32.7
53699;BME280;68408;53.952;27.612;2023-09-07T14:56:07;1023.7;;;22.1;32.8
53699;BME280;68408;53.952;27.612;2023-09-07T15:00:57;1023.7;;;22.1;32.8
53699;BME280;68408;53.952;27.612;2023-09-07T15:05:51;1023.6;;;22;32.8
53699;BME280;68408;53.952;27.612;2023-09-07T15:11:13;1023.6;;;22;32.9
53699;BME280;68408;53.952;27.612;2023-09-07T15:16:03;1023.5;;;21.9;33.1
53699;BME280;68408;53.952;27.612;2023-09-07T15:20:35;1023.5;;;21.9;33.3
53699;BME280;68408;53.952;27.612;2023-09-07T15:25:49;1023.6;;;21.9;33.5
53699;BME280;68408;53.952;27.612;2023-09-07T15:31:13;1023.6;;;21.8;33.5
53699;BME280;68408;53.952;27.612;2023-09-07T15:35:49;1023.6;;;21.7;33.6
53699;BME280;68408;53.952;27.612;2023-09-07T15:40:35;1023.6;;;21.6;33.8
53699;BME280;68408;53.952;27.612;2023-09-07T15:45:49;1023.7;;;21.5;34.3
53699;BME280;68408;53.952;27.612;2023-09-07T15:51:13;1023.7;;;21.4;34.6
53699;BME280;68408;53.952;27.612;2023-09-07T15:56:13;1023.7;;;21.3;35
53699;BME280;68408;53.952;27.612;2023-09-07T16:01:15;1023.8;;;21.2;35.4
53699;BME280;68408;53.952;27.612;2023-09-07T16:06:15;1023.8;;;21.1;35.6
53699;BME280;68408;53.952;27.612;2023-09-07T16:10:47;1023.8;;;21;35.9
53699;BME280;68408;53.952;27.612;2023-09-07T16:15:37;1023.8;;;20.8;36.3
53699;BME280;68408;53.952;27.612;2023-09-07T16:21:15;1023.8;;;20.6;36.6
53699;BME280;68408;53.952;27.612;2023-09-07T16:25:35;1023.8;;;20.5;37.1
53699;BME280;68408;53.952;27.612;2023-09-07T16:30:35;1023.8;;;20.3;37.5
53699;BME280;68408;53.952;27.612;2023-09-07T16:35:59;1023.8;;;20.2;38
53699;BME280;68408;53.952;27.612;2023-09-07T16:40:57;1023.8;;;20;38.4
53699;BME280;68408;53.952;27.612;2023-09-07T16:46:15;1023.8;;;19.8;38.9
53699;BME280;68408;53.952;27.612;2023-09-07T16:50:53;1023.8;;;19.7;39.2
53699;BME280;68408;53.952;27.612;2023-09-07T16:56:03;1023.8;;;19.5;39.5
53699;BME280;68408;53.952;27.612;2023-09-07T17:00:35;1023.8;;;19.3;39.8
53699;BME280;68408;53.952;27.612;2023-09-07T17:06:07;1023.9;;;19.2;40
53699;BME280;68408;53.952;27.612;2023-09-07T17:11:15;1023.9;;;19.1;40.3
53699;BME280;68408;53.952;27.612;2023-09-07T17:15:49;1023.9;;;19;40.5
53699;BME280;68408;53.952;27.612;2023-09-07T17:20:41;1023.9;;;18.9;40.8
53699;BME280;68408;53.952;27.612;2023-09-07T17:25:41;1023.9;;;18.8;41.1
53699;BME280;68408;53.952;27.612;2023-09-07T17:30:51;1024;;;18.7;41.4
53699;BME280;68408;53.952;27.612;2023-09-07T17:36:15;1024;;;18.6;41.5
53699;BME280;68408;53.952;27.612;2023-09-07T17:41:07;1024;;;18.5;41.7
53699;BME280;68408;53.952;27.612;2023-09-07T17:45:45;1024;;;18.4;42
53699;BME280;68408;53.952;27.612;2023-09-07T17:50:35;1023.9;;;18.3;42.4
53699;BME280;68408;53.952;27.612;2023-09-07T17:55:35;1023.9;;;18.3;42.9
53699;BME280;68408;53.952;27.612;2023-09-07T18:01:17;1023.9;;;18.2;43.4
53699;BME280;68408;53.952;27.612;2023-09-07T18:05:35;1023.8;;;18.1;43.9
53699;BME280;68408;53.952;27.612;2023-09-07T18:10:35;1023.8;;;18.1;44.2
53699;BME280;68408;53.952;27.612;2023-09-07T18:15:51;1023.8;;;18;44.3
53699;BME280;68408;53.952;27.612;2023-09-07T18:21:07;1023.8;;;17.9;44.5
53699;BME280;68408;53.952;27.612;2023-09-07T18:26:17;1023.8;;;17.9;44.9
53699;BME280;68408;53.952;27.612;2023-09-07T18:30:55;1023.8;;;17.8;45
53699;BME280;68408;53.952;27.612;2023-09-07T18:36:03;1023.8;;;17.8;45.1
53699;BME280;68408;53.952;27.612;2023-09-07T18:40:47;1023.8;;;17.7;45.5
53699;BME280;68408;53.952;27.612;2023-09-07T18:45:35;1023.9;;;17.6;45.5
53699;BME280;68408;53.952;27.612;2023-09-07T18:51:17;1023.9;;;17.5;45.7
53699;BME280;68408;53.952;27.612;2023-09-07T18:55:38;1023.8;;;17.4;46.1
53699;BME280;68408;53.952;27.612;2023-09-07T19:00:35;1023.8;;;17.4;46.3
53699;BME280;68408;53.952;27.612;2023-09-07T19:05:35;1023.8;;;17.3;46.6
53699;BME280;68408;53.952;27.612;2023-09-07T19:11:09;1023.8;;;17.2;46.8
53699;BME280;68408;53.952;27.612;2023-09-07T19:16:17;1023.8;;;17.2;47.2
53699;BME280;68408;53.952;27.612;2023-09-07T19:20:55;1023.9;;;17.1;47.5
53699;BME280;68408;53.952;27.612;2023-09-07T19:26:03;1023.9;;;17;47.7
53699;BME280;68408;53.952;27.612;2023-09-07T19:30:47;1023.8;;;16.9;48
53699;BME280;68408;53.952;27.612;2023-09-07T19:35:41;1023.8;;;16.9;47.9
53699;BME280;68408;53.952;27.612;2023-09-07T19:41:09;1023.7;;;16.8;48.5
53699;BME280;68408;53.952;27.612;2023-09-07T19:45:35;1023.7;;;16.7;48.9
53699;BME280;68408;53.952;27.612;2023-09-07T19:50:35;1023.8;;;16.6;49.1
53699;BME280;68408;53.952;27.612;2023-09-07T19:55:53;1023.9;;;16.5;49.1
53699;BME280;68408;53.952;27.612;2023-09-07T20:01:10;1023.9;;;16.4;49.3
53699;BME280;68408;53.952;27.612;2023-09-07T20:06:17;1023.9;;;16.3;50
53699;BME280;68408;53.952;27.612;2023-09-07T20:11:07;1023.9;;;16.2;50.4
53699;BME280;68408;53.952;27.612;2023-09-07T20:16:03;1023.9;;;16.1;50.9
53699;BME280;68408;53.952;27.612;2023-09-07T20:20:41;1023.9;;;16;51.8
53699;BME280;68408;53.952;27.612;2023-09-07T20:26:17;1023.9;;;15.8;53
53699;BME280;68408;53.952;27.612;2023-09-07T20:31:17;1024;;;15.7;53.7
53699;BME280;68408;53.952;27.612;2023-09-07T20:36:09;1024;;;15.6;54.3
53699;BME280;68408;53.952;27.612;2023-09-07T20:40:47;1023.9;;;15.5;54.7
53699;BME280;68408;53.952;27.612;2023-09-07T20:45:45;1023.8;;;15.4;55.2
53699;BME280;68408;53.952;27.612;2023-09-07T20:51:09;1023.8;;;15.3;55.7
53699;BME280;68408;53.952;27.612;2023-09-07T20:56:17;1023.8;;;15.2;56.2
53699;BME280;68408;53.952;27.612;2023-09-07T21:01:09;1023.8;;;15.1;56.8
53699;BME280;68408;53.952;27.612;2023-09-07T21:05:49;1023.8;;;15;57.2
53699;BME280;68408;53.952;27.612;2023-09-07T21:10:35;1023.8;;;15;57.7
53699;BME280;68408;53.952;27.612;2023-09-07T21:16:11;1023.8;;;14.9;57.9
53699;BME280;68408;53.952;27.612;2023-09-07T21:21:17;1023.8;;;14.8;58.2
53699;BME280;68408;53.952;27.612;2023-09-07T21:25:55;1023.8;;;14.8;58.3
53699;BME280;68408;53.952;27.612;2023-09-07T21:30:35;1023.8;;;14.8;58
53699;BME280;68408;53.952;27.612;2023-09-07T21:36:03;1023.8;;;14.8;57.7
53699;BME280;68408;53.952;27.612;2023-09-07T21:41:09;1023.7;;;14.8;57.7
53699;BME280;68408;53.952;27.612;2023-09-07T21:46:01;1023.7;;;14.7;58.1
53699;BME280;68408;53.952;27.612;2023-09-07T21:50:51;1023.6;;;14.7;58.3
53699;BME280;68408;53.952;27.612;2023-09-07T21:56:03;1023.6;;;14.7;58.1
53699;BME280;68408;53.952;27.612;2023-09-07T22:01:17;1023.6;;;14.7;57.9
53699;BME280;68408;53.952;27.612;2023-09-07T22:05:55;1023.6;;;14.6;58
53699;BME280;68408;53.952;27.612;2023-09-07T22:10:57;1023.6;;;14.6;57.9
53699;BME280;68408;53.952;27.612;2023-09-07T22:15:51;1023.6;;;14.6;58.7
53699;BME280;68408;53.952;27.612;2023-09-07T22:20:41;1023.7;;;14.5;58.3
53699;BME280;68408;53.952;27.612;2023-09-07T22:25:35;1023.7;;;14.4;58.1
53699;BME280;68408;53.952;27.612;2023-09-07T22:30:51;1023.6;;;14.3;58.4
53699;BME280;68408;53.952;27.612;2023-09-07T22:36:17;1023.6;;;14.2;58.9
53699;BME280;68408;53.952;27.612;2023-09-07T22:41:17;1023.7;;;14.2;58.8
53699;BME280;68408;53.952;27.612;2023-09-07T22:46:03;1023.7;;;14.1;59
53699;BME280;68408;53.952;27.612;2023-09-07T22:51:17;1023.7;;;14;59.4
53699;BME280;68408;53.952;27.612;2023-09-07T22:55:47;1023.7;;;14;59.5
53699;BME280;68408;53.952;27.612;2023-09-07T23:01:03;1023.8;;;13.9;59.9
53699;BME280;68408;53.952;27.612;2023-09-07T23:05:35;1023.8;;;13.9;60.3
53699;BME280;68408;53.952;27.612;2023-09-07T23:11:09;1023.7;;;13.8;60.7
53699;BME280;68408;53.952;27.612;2023-09-07T23:16:15;1023.7;;;13.7;60.9
53699;BME280;68408;53.952;27.612;2023-09-07T23:20:45;1023.7;;;13.7;61.2
53699;BME280;68408;53.952;27.612;2023-09-07T23:26:17;1023.7;;;13.6;61.2
53699;BME280;68408;53.952;27.612;2023-09-07T23:31:13;1023.7;;;13.6;61.4
53699;BME280;68408;53.952;27.612;2023-09-07T23:36:03;1023.6;;;13.5;61.8
53699;BME280;68408;53.952;27.612;2023-09-07T23:41:17;1023.6;;;13.5;62.2
53699;BME280;68408;53.952;27.612;2023-09-07T23:45:41;1023.6;;;13.4;62.5
53699;BME280;68408;53.952;27.612;2023-09-07T23:50:37;1023.6;;;13.4;62.7
53699;BME280;68408;53.952;27.612;2023-09-07T23:55:53;1023.5;;;13.3;62.7
